createdAt,value
2023-01-21T00:00:16.491Z,100967.44
2023-01-21T00:02:43.892Z,100973.66
2023-01-21T00:05:11.146Z,100970.16
2023-01-21T00:07:38.403Z,100969.81
2023-01-21T00:10:06.045Z,100968.97
2023-01-21T00:12:33.333Z,100974.16
2023-01-21T00:15:00.587Z,100978.91
2023-01-21T00:17:35.112Z,100977.16
2023-01-21T00:20:02.642Z,100980.13
2023-01-21T00:22:29.927Z,100980.91
2023-01-21T00:24:57.219Z,100979.31
2023-01-21T00:27:24.518Z,100980.88
2023-01-21T00:29:51.869Z,100977.75
2023-01-21T00:32:19.613Z,100983.94
2023-01-21T00:34:48.209Z,100978.53
2023-01-21T00:37:15.501Z,100976.81
2023-01-21T00:39:43.024Z,100975.78
2023-01-21T00:42:11.117Z,100970.69
2023-01-21T00:44:38.391Z,100986.22
2023-01-21T00:47:05.860Z,100976.75
2023-01-21T00:49:33.264Z,100969.84
2023-01-21T00:52:02.021Z,100977.63
2023-01-21T00:54:31.201Z,100984.59
2023-01-21T00:56:58.508Z,100998.16
2023-01-21T00:59:27.158Z,100990.16
2023-01-21T01:01:54.434Z,100997.16
2023-01-21T01:04:22.916Z,100989.16
2023-01-21T01:06:50.551Z,100998.94
2023-01-21T01:09:19.185Z,101005.84
2023-01-21T01:11:46.449Z,101003.13
2023-01-21T01:14:13.690Z,100994.31
2023-01-21T01:16:41.012Z,100990.88
2023-01-21T01:19:08.287Z,100988.03
2023-01-21T01:21:35.560Z,100987.41
2023-01-21T01:24:03.204Z,100994.44
2023-01-21T01:26:31.807Z,100987.88
2023-01-21T01:28:59.077Z,100994.66
2023-01-21T01:31:26.357Z,100990.38
2023-01-21T01:33:53.653Z,100996.56
2023-01-21T01:36:23.529Z,100991.31
2023-01-21T01:38:51.335Z,100996.63
2023-01-21T01:41:19.727Z,100996.63
2023-01-21T01:44:04.991Z,100993.88
2023-01-21T01:46:34.355Z,101004.09
2023-01-21T01:49:05.048Z,101013.31
2023-01-21T01:51:36.018Z,101005.19
2023-01-21T01:54:04.772Z,101010.41
2023-01-21T01:56:32.211Z,101004.16
2023-01-21T01:58:59.623Z,101006.03
2023-01-21T02:01:26.985Z,101013.22
2023-01-21T02:03:59.419Z,101007.13
2023-01-21T02:06:27.253Z,101015.03
2023-01-21T02:08:54.931Z,101022.16
2023-01-21T02:11:22.293Z,101029.09
2023-01-21T02:13:51.841Z,101033.50
2023-01-21T02:16:26.155Z,101027.25
2023-01-21T02:18:59.354Z,101022.94
2023-01-21T02:21:44.612Z,101035.28
2023-01-21T02:24:29.663Z,101038.16
2023-01-21T02:27:15.511Z,101039.69
2023-01-21T02:29:59.877Z,101036.38
2023-01-21T02:32:40.399Z,101040.75
2023-01-21T02:35:14.673Z,101044.19
2023-01-21T02:37:46.855Z,101043.44
2023-01-21T02:40:16.475Z,101046.22
2023-01-21T02:42:46.655Z,101044.47
2023-01-21T02:45:22.768Z,101054.16
2023-01-21T02:47:53.144Z,101045.50
2023-01-21T02:50:24.149Z,101043.56
2023-01-21T02:52:58.196Z,101045.28
2023-01-21T02:55:28.114Z,101050.63
2023-01-21T02:57:57.811Z,101061.16
2023-01-21T03:00:27.385Z,101059.50
2023-01-21T03:03:13.329Z,101057.75
2023-01-21T03:05:49.032Z,101061.19
2023-01-21T03:08:19.920Z,101057.88
2023-01-21T03:10:49.071Z,101062.19
2023-01-21T03:13:39.166Z,101063.19
2023-01-21T03:16:25.962Z,101064.91
2023-01-21T03:18:57.032Z,101067.44
2023-01-21T03:21:27.577Z,101064.97
2023-01-21T03:23:56.383Z,101068.25
2023-01-21T03:26:27.313Z,101083.47
2023-01-21T03:28:58.361Z,101079.16
2023-01-21T03:31:28.855Z,101081.66
2023-01-21T03:34:00.099Z,101082.66
2023-01-21T03:36:34.433Z,101074.59
2023-01-21T03:39:02.934Z,101076.41
2023-01-21T03:41:33.997Z,101080.72
2023-01-21T03:44:01.638Z,101089.50
2023-01-21T03:46:36.220Z,101089.53
2023-01-21T03:49:05.424Z,101092.28
2023-01-21T03:51:35.461Z,101086.91
2023-01-21T03:54:03.179Z,101083.41
2023-01-21T03:56:30.826Z,101077.25
2023-01-21T03:58:58.379Z,101080.72
2023-01-21T04:01:25.636Z,101078.00
2023-01-21T04:03:52.942Z,101088.53
2023-01-21T04:06:21.123Z,101083.34
2023-01-21T04:08:50.051Z,101088.53
2023-01-21T04:11:17.381Z,101091.06
2023-01-21T04:13:44.790Z,101083.16
2023-01-21T04:16:12.063Z,101084.13
2023-01-21T04:18:39.325Z,101087.63
2023-01-21T04:21:06.590Z,101093.66
2023-01-21T04:23:33.865Z,101089.09
2023-01-21T04:26:02.452Z,101091.00
2023-01-21T04:28:29.692Z,101090.25
2023-01-21T04:30:57.000Z,101088.25
2023-01-21T04:33:24.262Z,101086.53
2023-01-21T04:35:51.531Z,101085.69
2023-01-21T04:38:18.941Z,101091.94
2023-01-21T04:40:46.200Z,101094.56
2023-01-21T04:43:14.782Z,101096.44
2023-01-21T04:45:42.094Z,101101.66
2023-01-21T04:48:09.383Z,101092.03
2023-01-21T04:50:36.664Z,101093.03
2023-01-21T04:53:03.983Z,101095.56
2023-01-21T04:55:31.239Z,101087.63
2023-01-21T04:57:58.508Z,101089.38
2023-01-21T05:00:27.110Z,101097.25
2023-01-21T05:02:54.414Z,101093.69
2023-01-21T05:05:22.035Z,101104.22
2023-01-21T05:07:52.783Z,101113.16
2023-01-21T05:10:20.444Z,101105.84
2023-01-21T05:12:48.409Z,101111.31
2023-01-21T05:15:15.747Z,101115.75
2023-01-21T05:17:44.333Z,101113.91
2023-01-21T05:20:12.192Z,101112.19
2023-01-21T05:22:39.753Z,101123.56
2023-01-21T05:25:07.338Z,101114.66
2023-01-21T05:27:34.613Z,101116.56
2023-01-21T05:30:01.916Z,101121.06
2023-01-21T05:32:29.169Z,101118.44
2023-01-21T05:34:57.790Z,101121.00
2023-01-21T05:37:25.363Z,101128.06
2023-01-21T05:39:52.941Z,101122.84
2023-01-21T05:42:20.192Z,101132.47
2023-01-21T05:44:47.469Z,101121.00
2023-01-21T05:47:14.767Z,101115.75
2023-01-21T05:49:42.023Z,101116.72
2023-01-21T05:52:10.599Z,101119.38
2023-01-21T05:54:38.370Z,101115.88
2023-01-21T05:57:06.588Z,101117.31
2023-01-21T05:59:33.844Z,101120.00
2023-01-21T06:02:01.166Z,101121.69
2023-01-21T06:04:30.654Z,101122.13
2023-01-21T06:06:58.075Z,101122.88
2023-01-21T06:09:26.682Z,101127.19
2023-01-21T06:11:53.946Z,101127.38
2023-01-21T06:14:21.189Z,101119.31
2023-01-21T06:16:48.439Z,101122.84
2023-01-21T06:19:15.788Z,101127.25
2023-01-21T06:21:43.065Z,101126.44
2023-01-21T06:24:10.313Z,101126.28
2023-01-21T06:26:40.702Z,101137.69
2023-01-21T06:29:07.974Z,101139.56
2023-01-21T06:31:35.321Z,101134.19
2023-01-21T06:34:02.966Z,101144.72
2023-01-21T06:36:30.203Z,101128.88
2023-01-21T06:38:57.763Z,101132.25
2023-01-21T06:41:25.033Z,101129.53
2023-01-21T06:43:53.736Z,101134.09
2023-01-21T06:46:21.063Z,101129.66
2023-01-21T06:48:48.358Z,101138.41
2023-01-21T06:51:15.651Z,101131.28
2023-01-21T06:53:42.921Z,101141.09
2023-01-21T06:56:10.543Z,101141.78
2023-01-21T06:58:37.785Z,101142.66
2023-01-21T07:01:06.445Z,101151.69
2023-01-21T07:03:33.727Z,101142.84
2023-01-21T07:06:00.981Z,101142.94
2023-01-21T07:08:28.259Z,101131.41
2023-01-21T07:10:55.522Z,101138.50
2023-01-21T07:13:23.360Z,101137.59
2023-01-21T07:15:50.653Z,101138.50
2023-01-21T07:18:19.286Z,101138.41
2023-01-21T07:20:46.621Z,101142.88
2023-01-21T07:23:13.877Z,101153.41
2023-01-21T07:25:41.273Z,101160.41
2023-01-21T07:28:08.559Z,101158.78
2023-01-21T07:30:35.818Z,101157.94
2023-01-21T07:33:05.685Z,101160.50
2023-01-21T07:35:34.333Z,101159.53
2023-01-21T07:38:01.991Z,101168.25
2023-01-21T07:40:29.428Z,101165.72
2023-01-21T07:42:56.934Z,101158.56
2023-01-21T07:45:24.597Z,101159.44
2023-01-21T07:47:51.878Z,101155.84
2023-01-21T07:50:19.279Z,101157.72
2023-01-21T07:52:47.990Z,101162.13
2023-01-21T07:55:15.611Z,101168.97
2023-01-21T07:57:43.030Z,101164.59
2023-01-21T08:00:10.945Z,101172.63
2023-01-21T08:02:38.252Z,101165.63
2023-01-21T08:05:05.863Z,101160.31
2023-01-21T08:07:33.157Z,101161.97
2023-01-21T08:10:01.743Z,101168.16
2023-01-21T08:12:29.106Z,101160.25
2023-01-21T08:14:56.366Z,101160.94
2023-01-21T08:17:23.606Z,101159.13
2023-01-21T08:19:50.890Z,101167.94
2023-01-21T08:22:18.145Z,101164.38
2023-01-21T08:24:45.421Z,101165.31
2023-01-21T08:27:14.002Z,101163.63
2023-01-21T08:29:41.280Z,101172.41
2023-01-21T08:32:08.611Z,101167.94
2023-01-21T08:34:35.945Z,101155.78
2023-01-21T08:37:03.203Z,101160.03
2023-01-21T08:39:30.465Z,101157.22
2023-01-21T08:41:57.728Z,101152.97
2023-01-21T08:44:26.300Z,101159.78
2023-01-21T08:46:53.581Z,101152.91
2023-01-21T08:49:22.547Z,101157.94
2023-01-21T08:51:50.302Z,101162.44
2023-01-21T08:54:17.595Z,101155.31
2023-01-21T08:56:44.897Z,101157.88
2023-01-21T08:59:12.242Z,101160.66
2023-01-21T09:01:41.463Z,101164.13
2023-01-21T09:04:10.153Z,101163.28
2023-01-21T09:06:37.588Z,101164.16
2023-01-21T09:09:04.949Z,101164.81
2023-01-21T09:11:32.212Z,101167.72
2023-01-21T09:14:03.336Z,101169.22
2023-01-21T09:16:32.349Z,101163.94
2023-01-21T09:19:01.549Z,101172.94
2023-01-21T09:21:29.352Z,101170.16
2023-01-21T09:23:56.681Z,101179.00
2023-01-21T09:26:24.716Z,101169.19
2023-01-21T09:28:53.224Z,101166.47
2023-01-21T09:31:21.547Z,101168.06
2023-01-21T09:33:50.201Z,101172.59
2023-01-21T09:36:19.950Z,101170.75
2023-01-21T09:38:47.997Z,101171.56
2023-01-21T09:41:19.808Z,101166.34
2023-01-21T09:43:49.536Z,101167.19
2023-01-21T09:46:20.022Z,101162.63
2023-01-21T09:48:48.525Z,101159.13
2023-01-21T09:51:20.634Z,101154.56
2023-01-21T09:53:50.480Z,101154.72
2023-01-21T09:56:22.561Z,101157.34
2023-01-21T09:58:52.967Z,101155.44
2023-01-21T10:01:23.009Z,101163.69
2023-01-21T10:03:54.241Z,101153.72
2023-01-21T10:06:26.334Z,101147.50
2023-01-21T10:09:06.683Z,101150.16
2023-01-21T10:11:39.404Z,101152.63
2023-01-21T10:14:15.329Z,101158.63
2023-01-21T10:16:46.097Z,101145.56
2023-01-21T10:19:14.445Z,101142.00
2023-01-21T10:21:46.358Z,101146.56
2023-01-21T10:24:17.408Z,101145.56
2023-01-21T10:26:45.514Z,101148.19
2023-01-21T10:29:16.606Z,101139.50
2023-01-21T10:31:45.984Z,101139.66
2023-01-21T10:34:14.551Z,101135.00
2023-01-21T10:36:46.293Z,101124.31
2023-01-21T10:39:19.708Z,101133.22
2023-01-21T10:42:10.687Z,101127.03
2023-01-21T10:44:40.984Z,101129.50
2023-01-21T10:47:14.241Z,101129.66
2023-01-21T10:49:49.772Z,101119.72
2023-01-21T10:52:20.313Z,101115.44
2023-01-21T10:54:53.149Z,101115.53
2023-01-21T10:57:29.821Z,101112.94
2023-01-21T10:59:58.161Z,101108.59
2023-01-21T11:02:28.849Z,101109.31
2023-01-21T11:04:58.266Z,101104.84
2023-01-21T11:07:29.587Z,101104.09
2023-01-21T11:09:58.374Z,101094.94
2023-01-21T11:12:27.715Z,101096.63
2023-01-21T11:14:56.837Z,101106.22
2023-01-21T11:17:32.814Z,101099.28
2023-01-21T11:20:00.855Z,101095.84
2023-01-21T11:22:30.622Z,101090.38
2023-01-21T11:24:59.632Z,101097.47
2023-01-21T11:27:33.397Z,101089.66
2023-01-21T11:30:00.725Z,101087.81
2023-01-21T11:32:29.160Z,101072.75
2023-01-21T11:35:01.420Z,101075.22
2023-01-21T11:37:29.779Z,101064.75
2023-01-21T11:40:00.039Z,101061.91
2023-01-21T11:42:28.623Z,101066.25
2023-01-21T11:44:56.650Z,101053.13
2023-01-21T11:47:28.931Z,101051.66
2023-01-21T11:50:02.549Z,101045.56
2023-01-21T11:52:29.839Z,101046.34
2023-01-21T11:54:57.158Z,101044.19
2023-01-21T11:57:33.303Z,101038.03
2023-01-21T12:00:07.500Z,101044.25
2023-01-21T12:02:37.398Z,101047.06
2023-01-21T12:05:09.137Z,101049.03
2023-01-21T12:07:38.452Z,101040.06
2023-01-21T12:10:09.295Z,101042.47
2023-01-21T12:12:46.887Z,101046.41
2023-01-21T12:15:19.004Z,101045.47
2023-01-21T12:17:53.052Z,101035.75
2023-01-21T12:20:26.643Z,101029.09
2023-01-21T12:23:00.338Z,101041.44
2023-01-21T12:25:38.145Z,101044.34
2023-01-21T12:28:17.226Z,101043.38
2023-01-21T12:30:49.873Z,101036.22
2023-01-21T12:33:22.512Z,101028.28
2023-01-21T12:35:52.260Z,101018.50
2023-01-21T12:38:21.707Z,101020.28
2023-01-21T12:40:51.914Z,101022.16
2023-01-21T12:43:23.984Z,101013.19
2023-01-21T12:45:54.495Z,101006.22
2023-01-21T12:48:25.725Z,101000.72
2023-01-21T12:50:55.471Z,100991.94
2023-01-21T12:53:27.344Z,101001.00
2023-01-21T12:56:03.817Z,100994.78
2023-01-21T12:58:34.119Z,100990.34
2023-01-21T13:01:02.998Z,100981.56
2023-01-21T13:03:37.241Z,100976.16
2023-01-21T13:06:07.315Z,100969.38
2023-01-21T13:08:58.727Z,100963.81
2023-01-21T13:11:27.607Z,100949.69
2023-01-21T13:14:03.251Z,100953.16
2023-01-21T13:16:31.324Z,100944.16
2023-01-21T13:18:58.716Z,100942.03
2023-01-21T13:21:33.590Z,100925.19
2023-01-21T13:24:04.201Z,100930.63
2023-01-21T13:26:37.095Z,100928.19
2023-01-21T13:29:10.114Z,100925.34
2023-01-21T13:31:41.302Z,100923.06
2023-01-21T13:34:15.006Z,100918.19
2023-01-21T13:36:51.490Z,100925.66
2023-01-21T13:39:21.710Z,100922.53
2023-01-21T13:41:57.205Z,100923.41
2023-01-21T13:44:48.304Z,100932.16
2023-01-21T13:47:21.254Z,100916.25
2023-01-21T13:49:56.543Z,100917.34
2023-01-21T13:52:27.871Z,100919.16
2023-01-21T13:55:01.353Z,100915.91
2023-01-21T13:57:42.022Z,100920.50
2023-01-21T14:00:13.812Z,100913.31
2023-01-21T14:02:46.081Z,100912.56
2023-01-21T14:05:15.401Z,100905.28
2023-01-21T14:07:46.090Z,100910.38
2023-01-21T14:10:16.789Z,100897.59
2023-01-21T14:12:53.903Z,100906.50
2023-01-21T14:15:30.398Z,100904.84
2023-01-21T14:18:08.426Z,100898.56
2023-01-21T14:20:43.576Z,100910.69
2023-01-21T14:23:26.846Z,100900.13
2023-01-21T14:26:02.749Z,100903.94
2023-01-21T14:28:34.634Z,100905.81
2023-01-21T14:31:07.708Z,100901.22
2023-01-21T14:33:39.048Z,100902.88
2023-01-21T14:36:09.052Z,100903.91
2023-01-21T14:38:43.464Z,100898.75
2023-01-21T14:41:11.600Z,100897.84
2023-01-21T14:43:49.469Z,100896.91
2023-01-21T14:46:28.524Z,100899.56
2023-01-21T14:48:58.295Z,100888.09
2023-01-21T14:51:28.124Z,100892.63
2023-01-21T14:53:58.923Z,100891.78
2023-01-21T14:56:28.752Z,100896.91
2023-01-21T14:58:58.378Z,100894.19
2023-01-21T15:01:29.245Z,100883.00
2023-01-21T15:03:57.469Z,100888.25
2023-01-21T15:06:26.226Z,100885.34
2023-01-21T15:08:56.153Z,100881.84
2023-01-21T15:11:27.595Z,100884.84
2023-01-21T15:14:02.254Z,100887.22
2023-01-21T15:16:34.782Z,100890.66
2023-01-21T15:19:18.944Z,100889.00
2023-01-21T15:22:00.725Z,100887.31
2023-01-21T15:24:30.455Z,100889.97
2023-01-21T15:27:04.409Z,100886.44
2023-01-21T15:29:34.392Z,100894.28
2023-01-21T15:32:22.103Z,100883.75
2023-01-21T15:34:50.759Z,100883.56
2023-01-21T15:37:20.593Z,100890.66
2023-01-21T15:39:48.923Z,100878.34
2023-01-21T15:42:21.312Z,100883.81
2023-01-21T15:44:53.794Z,100882.06
2023-01-21T15:47:30.708Z,100882.88
2023-01-21T15:50:03.116Z,100876.53
2023-01-21T15:52:38.116Z,100883.75
2023-01-21T15:55:16.121Z,100879.16
2023-01-21T15:57:46.662Z,100875.06
2023-01-21T16:00:21.762Z,100874.78
2023-01-21T16:02:52.748Z,100879.28
2023-01-21T16:05:23.389Z,100869.91
2023-01-21T16:07:55.957Z,100871.34
2023-01-21T16:10:27.099Z,100859.09
2023-01-21T16:13:00.695Z,100868.66
2023-01-21T16:15:34.481Z,100860.69
2023-01-21T16:18:11.766Z,100865.06
2023-01-21T16:20:42.920Z,100868.59
2023-01-21T16:23:10.326Z,100866.75
2023-01-21T16:25:45.510Z,100863.16
2023-01-21T16:28:12.845Z,100865.78
2023-01-21T16:30:40.191Z,100866.72
2023-01-21T16:33:09.910Z,100861.75
2023-01-21T16:35:46.913Z,100862.41
2023-01-21T16:38:15.013Z,100857.13
2023-01-21T16:40:42.346Z,100863.34
2023-01-21T16:43:23.171Z,100855.28
2023-01-21T16:45:51.307Z,100862.50
2023-01-21T16:48:22.870Z,100869.47
2023-01-21T16:50:50.497Z,100861.59
2023-01-21T16:53:18.914Z,100863.31
2023-01-21T16:55:46.960Z,100865.84
2023-01-21T16:58:21.241Z,100862.41
2023-01-21T17:00:58.589Z,100868.63
2023-01-21T17:03:27.852Z,100869.38
2023-01-21T17:05:57.819Z,100868.53
2023-01-21T17:08:25.137Z,100871.50
2023-01-21T17:10:54.197Z,100867.78
2023-01-21T17:13:23.199Z,100867.69
2023-01-21T17:15:57.303Z,100870.25
2023-01-21T17:18:28.439Z,100869.47
2023-01-21T17:21:01.048Z,100870.53
2023-01-21T17:23:30.003Z,100865.91
2023-01-21T17:25:59.605Z,100865.75
2023-01-21T17:28:30.845Z,100869.47
2023-01-21T17:31:22.573Z,100869.34
2023-01-21T17:34:03.849Z,100867.78
2023-01-21T17:36:32.183Z,100868.41
2023-01-21T17:38:59.704Z,100869.25
2023-01-21T17:41:27.904Z,100871.97
2023-01-21T17:43:56.609Z,100884.25
2023-01-21T17:46:24.460Z,100887.75
2023-01-21T17:48:54.116Z,100884.38
2023-01-21T17:51:24.436Z,100895.56
2023-01-21T17:53:55.608Z,100885.13
2023-01-21T17:56:37.234Z,100898.16
2023-01-21T17:59:04.684Z,100894.94
2023-01-21T18:01:32.509Z,100889.69
2023-01-21T18:03:59.816Z,100898.22
2023-01-21T18:06:29.203Z,100898.16
2023-01-21T18:08:57.658Z,100898.16
2023-01-21T18:11:24.929Z,100897.09
2023-01-21T18:13:52.511Z,100891.13
2023-01-21T18:16:19.945Z,100894.75
2023-01-21T18:18:47.286Z,100909.84
2023-01-21T18:21:17.480Z,100907.03
2023-01-21T18:23:46.192Z,100908.13
2023-01-21T18:26:17.442Z,100902.59
2023-01-21T18:28:44.728Z,100893.81
2023-01-21T18:31:12.124Z,100901.66
2023-01-21T18:33:39.751Z,100901.66
2023-01-21T18:36:07.533Z,100909.75
2023-01-21T18:38:35.847Z,100911.38
2023-01-21T18:41:05.660Z,100913.25
2023-01-21T18:43:32.951Z,100909.09
2023-01-21T18:46:00.212Z,100919.50
2023-01-21T18:48:29.493Z,100912.47
2023-01-21T18:50:57.154Z,100907.03
2023-01-21T18:53:25.451Z,100907.84
2023-01-21T18:55:53.741Z,100907.78
2023-01-21T18:58:22.775Z,100909.84
2023-01-21T19:00:53.393Z,100914.00
2023-01-21T19:03:23.138Z,100918.44
2023-01-21T19:05:50.996Z,100916.75
2023-01-21T19:08:21.616Z,100908.78
2023-01-21T19:10:48.970Z,100914.88
2023-01-21T19:13:16.261Z,100908.41
2023-01-21T19:15:45.273Z,100905.78
2023-01-21T19:18:13.159Z,100907.59
2023-01-21T19:20:41.558Z,100914.75
2023-01-21T19:23:11.475Z,100912.09
2023-01-21T19:25:38.766Z,100912.81
2023-01-21T19:28:06.221Z,100909.25
2023-01-21T19:30:33.578Z,100913.03
2023-01-21T19:33:02.337Z,100906.81
2023-01-21T19:35:34.511Z,100918.22
2023-01-21T19:38:03.077Z,100920.78
2023-01-21T19:40:31.047Z,100921.78
2023-01-21T19:42:58.346Z,100922.56
2023-01-21T19:45:28.112Z,100918.22
2023-01-21T19:47:55.909Z,100931.28
2023-01-21T19:50:25.235Z,100945.22
2023-01-21T19:52:53.520Z,100951.56
2023-01-21T19:55:22.145Z,100951.75
2023-01-21T19:57:53.456Z,100961.25
2023-01-21T20:00:22.048Z,100959.50
2023-01-21T20:02:49.431Z,100954.50
2023-01-21T20:05:16.958Z,100952.66
2023-01-21T20:07:46.714Z,100964.81
2023-01-21T20:10:14.962Z,100970.13
2023-01-21T20:12:43.783Z,100975.34
2023-01-21T20:15:11.619Z,100980.94
2023-01-21T20:17:39.613Z,100976.25
2023-01-21T20:20:20.293Z,100974.56
2023-01-21T20:22:48.915Z,100977.88
2023-01-21T20:25:17.100Z,100981.44
2023-01-21T20:27:45.558Z,100989.44
2023-01-21T20:30:18.482Z,100986.88
2023-01-21T20:32:45.959Z,100993.19
2023-01-21T20:35:15.703Z,101000.94
2023-01-21T20:37:45.365Z,100981.69
2023-01-21T20:40:19.195Z,100992.25
2023-01-21T20:42:46.741Z,101000.16
2023-01-21T20:45:14.691Z,100995.84
2023-01-21T20:47:49.707Z,101006.31
2023-01-21T20:50:18.831Z,100998.44
2023-01-21T20:52:46.121Z,101011.59
2023-01-21T20:55:14.079Z,101008.13
2023-01-21T20:57:43.008Z,101008.19
2023-01-21T21:00:15.262Z,101021.44
2023-01-21T21:02:42.624Z,101019.59
2023-01-21T21:05:10.233Z,101014.91
2023-01-21T21:07:37.512Z,101021.13
2023-01-21T21:10:05.386Z,101030.03
2023-01-21T21:12:32.645Z,101025.56
2023-01-21T21:15:01.556Z,101027.38
2023-01-21T21:17:28.838Z,101038.88
2023-01-21T21:19:56.082Z,101035.44
2023-01-21T21:22:23.389Z,101031.88
2023-01-21T21:24:50.900Z,101039.56
2023-01-21T21:27:18.170Z,101034.38
2023-01-21T21:29:45.411Z,101033.56
2023-01-21T21:32:14.607Z,101033.56
2023-01-21T21:34:42.753Z,101037.94
2023-01-21T21:37:11.725Z,101040.66
2023-01-21T21:39:38.989Z,101044.25
2023-01-21T21:42:24.005Z,101044.84
2023-01-21T21:44:51.252Z,101041.50
2023-01-21T21:47:37.241Z,101050.22
2023-01-21T21:50:04.788Z,101048.47
2023-01-21T21:52:32.749Z,101056.59
2023-01-21T21:54:59.994Z,101050.38
2023-01-21T21:57:27.294Z,101052.00
2023-01-21T21:59:54.554Z,101052.06
2023-01-21T22:02:23.169Z,101048.69
2023-01-21T22:04:50.441Z,101053.88
2023-01-21T22:07:18.000Z,101063.78
2023-01-21T22:09:45.422Z,101058.25
2023-01-21T22:12:12.694Z,101053.78
2023-01-21T22:14:39.964Z,101051.16
2023-01-21T22:17:08.533Z,101053.78
2023-01-21T22:19:37.867Z,101058.16
2023-01-21T22:22:05.316Z,101060.94
2023-01-21T22:24:32.583Z,101061.72
2023-01-21T22:26:59.899Z,101067.84
2023-01-21T22:29:27.157Z,101074.84
2023-01-21T22:31:54.491Z,101066.81
2023-01-21T22:34:22.045Z,101068.53
2023-01-21T22:36:52.104Z,101067.75
2023-01-21T22:39:19.463Z,101074.06
2023-01-21T22:41:46.763Z,101079.28
2023-01-21T22:44:14.045Z,101081.81
2023-01-21T22:46:41.351Z,101087.16
2023-01-21T22:49:08.653Z,101080.91
2023-01-21T22:51:35.908Z,101083.72
2023-01-21T22:54:04.584Z,101075.78
2023-01-21T22:56:50.424Z,101081.16
2023-01-21T22:59:22.208Z,101082.81
2023-01-21T23:01:50.924Z,101084.75
2023-01-21T23:04:18.431Z,101086.56
2023-01-21T23:06:47.588Z,101085.59
2023-01-21T23:09:16.377Z,101083.13
2023-01-21T23:11:44.951Z,101089.16
2023-01-21T23:14:12.324Z,101081.19
2023-01-21T23:16:40.229Z,101089.94
2023-01-21T23:19:07.503Z,101090.78
2023-01-21T23:21:35.863Z,101091.72
2023-01-21T23:24:03.264Z,101098.63
2023-01-21T23:26:31.908Z,101093.34
2023-01-21T23:28:59.607Z,101090.63
2023-01-21T23:31:26.990Z,101095.06
2023-01-21T23:33:56.018Z,101104.75
2023-01-21T23:36:23.342Z,101099.59
2023-01-21T23:38:50.672Z,101097.69
2023-01-21T23:41:19.763Z,101097.81
2023-01-21T23:43:48.397Z,101107.50
2023-01-21T23:46:19.104Z,101101.41
2023-01-21T23:48:46.401Z,101103.06
2023-01-21T23:51:14.726Z,101102.16
2023-01-21T23:53:42.150Z,101103.03
2023-01-21T23:56:10.608Z,101099.50
2023-01-21T23:58:37.909Z,101101.28
